sensor_id;sensor_type;location;lat;lon;timestamp;pressure;altitude;pressure_sealevel;temperature;humidity
48156;BME280;35568;48.104;11.782;2023-08-24T00:00:18;95686.38;;;24.35;49.09
48156;BME280;35568;48.104;11.782;2023-08-24T00:02:44;95686.69;;;24.57;48.53
48156;BME280;35568;48.104;11.782;2023-08-24T00:05:11;95687.50;;;24.69;48.11
48156;BME280;35568;48.104;11.782;2023-08-24T00:07:38;95685.13;;;24.72;48.06
48156;BME280;35568;48.104;11.782;2023-08-24T00:10:06;95683.05;;;24.66;48.23
48156;BME280;35568;48.104;11.782;2023-08-24T00:12:33;95682.28;;;24.58;48.61
48156;BME280;35568;48.104;11.782;2023-08-24T00:15:00;95682.92;;;24.59;48.29
48156;BME280;35568;48.104;11.782;2023-08-24T00:17:28;95679.53;;;24.55;48.35
48156;BME280;35568;48.104;11.782;2023-08-24T00:19:54;95677.19;;;24.54;48.08
48156;BME280;35568;48.104;11.782;2023-08-24T00:22:21;95679.29;;;24.63;47.94
48156;BME280;35568;48.104;11.782;2023-08-24T00:24:49;95677.84;;;24.54;47.94
48156;BME280;35568;48.104;11.782;2023-08-24T00:27:15;95671.91;;;24.42;48.30
48156;BME280;35568;48.104;11.782;2023-08-24T00:29:43;95673.11;;;24.36;48.27
48156;BME280;35568;48.104;11.782;2023-08-24T00:32:10;95672.60;;;24.38;48.95
48156;BME280;35568;48.104;11.782;2023-08-24T00:34:37;95671.53;;;23.83;48.88
48156;BME280;35568;48.104;11.782;2023-08-24T00:37:04;95670.46;;;24.00;49.41
48156;BME280;35568;48.104;11.782;2023-08-24T00:39:31;95673.47;;;24.14;49.07
48156;BME280;35568;48.104;11.782;2023-08-24T00:41:59;95671.26;;;24.14;49.46
48156;BME280;35568;48.104;11.782;2023-08-24T00:44:26;95675.30;;;23.76;49.90
48156;BME280;35568;48.104;11.782;2023-08-24T00:46:53;95674.03;;;24.07;50.06
48156;BME280;35568;48.104;11.782;2023-08-24T00:49:21;95668.69;;;24.06;49.26
48156;BME280;35568;48.104;11.782;2023-08-24T00:51:49;95673.81;;;24.08;50.03
48156;BME280;35568;48.104;11.782;2023-08-24T00:54:16;95669.04;;;23.78;49.54
48156;BME280;35568;48.104;11.782;2023-08-24T00:56:43;95672.60;;;23.96;49.56
48156;BME280;35568;48.104;11.782;2023-08-24T00:59:11;95673.59;;;23.69;49.62
48156;BME280;35568;48.104;11.782;2023-08-24T01:01:39;95671.37;;;23.95;49.41
48156;BME280;35568;48.104;11.782;2023-08-24T01:04:08;95671.06;;;23.99;49.45
48156;BME280;35568;48.104;11.782;2023-08-24T01:06:35;95672.47;;;24.10;49.15
48156;BME280;35568;48.104;11.782;2023-08-24T01:09:02;95668.85;;;24.26;48.93
48156;BME280;35568;48.104;11.782;2023-08-24T01:11:36;95669.14;;;23.60;49.52
48156;BME280;35568;48.104;11.782;2023-08-24T01:14:09;95667.87;;;23.53;49.54
48156;BME280;35568;48.104;11.782;2023-08-24T01:16:43;95666.62;;;23.40;50.18
48156;BME280;35568;48.104;11.782;2023-08-24T01:19:22;95667.77;;;23.67;50.24
48156;BME280;35568;48.104;11.782;2023-08-24T01:21:54;95667.43;;;23.50;50.25
48156;BME280;35568;48.104;11.782;2023-08-24T01:24:29;95665.30;;;23.45;50.10
48156;BME280;35568;48.104;11.782;2023-08-24T01:26:58;95663.96;;;23.45;50.20
48156;BME280;35568;48.104;11.782;2023-08-24T01:29:26;95665.91;;;23.26;50.35
48156;BME280;35568;48.104;11.782;2023-08-24T01:31:53;95668.01;;;23.42;50.20
48156;BME280;35568;48.104;11.782;2023-08-24T01:34:20;95666.47;;;23.38;50.35
48156;BME280;35568;48.104;11.782;2023-08-24T01:36:47;95669.95;;;23.24;51.05
48156;BME280;35568;48.104;11.782;2023-08-24T01:39:21;95667.76;;;23.19;51.12
48156;BME280;35568;48.104;11.782;2023-08-24T01:41:55;95668.55;;;23.09;51.48
48156;BME280;35568;48.104;11.782;2023-08-24T01:44:29;95664.15;;;23.23;51.71
48156;BME280;35568;48.104;11.782;2023-08-24T01:47:02;95664.01;;;23.03;51.44
48156;BME280;35568;48.104;11.782;2023-08-24T01:49:32;95662.41;;;23.05;51.46
48156;BME280;35568;48.104;11.782;2023-08-24T01:52:01;95661.20;;;23.27;50.00
48156;BME280;35568;48.104;11.782;2023-08-24T01:54:28;95658.32;;;23.28;49.50
48156;BME280;35568;48.104;11.782;2023-08-24T01:56:55;95657.33;;;23.43;50.25
48156;BME280;35568;48.104;11.782;2023-08-24T01:59:23;95655.03;;;23.54;49.57
48156;BME280;35568;48.104;11.782;2023-08-24T02:01:50;95651.50;;;23.46;49.12
48156;BME280;35568;48.104;11.782;2023-08-24T02:04:17;95648.34;;;23.15;51.07
48156;BME280;35568;48.104;11.782;2023-08-24T02:06:44;95644.21;;;23.06;51.13
48156;BME280;35568;48.104;11.782;2023-08-24T02:09:11;95639.65;;;23.11;49.86
48156;BME280;35568;48.104;11.782;2023-08-24T02:11:38;95635.78;;;23.58;49.42
48156;BME280;35568;48.104;11.782;2023-08-24T02:14:04;95632.89;;;23.14;49.20
48156;BME280;35568;48.104;11.782;2023-08-24T02:16:31;95634.50;;;23.33;49.45
48156;BME280;35568;48.104;11.782;2023-08-24T02:18:59;95634.07;;;23.49;49.61
48156;BME280;35568;48.104;11.782;2023-08-24T02:21:25;95634.25;;;23.24;49.61
48156;BME280;35568;48.104;11.782;2023-08-24T02:23:52;95636.47;;;23.34;49.52
48156;BME280;35568;48.104;11.782;2023-08-24T02:26:20;95634.68;;;23.19;48.78
48156;BME280;35568;48.104;11.782;2023-08-24T02:28:46;95628.44;;;23.20;49.64
48156;BME280;35568;48.104;11.782;2023-08-24T02:31:13;95626.71;;;23.33;50.03
48156;BME280;35568;48.104;11.782;2023-08-24T02:33:40;95622.73;;;23.23;50.10
48156;BME280;35568;48.104;11.782;2023-08-24T02:36:07;95621.38;;;22.88;50.22
48156;BME280;35568;48.104;11.782;2023-08-24T02:38:34;95622.33;;;23.12;50.42
48156;BME280;35568;48.104;11.782;2023-08-24T02:41:02;95621.46;;;23.14;51.04
48156;BME280;35568;48.104;11.782;2023-08-24T02:43:29;95618.53;;;22.79;50.72
48156;BME280;35568;48.104;11.782;2023-08-24T02:46:00;95618.56;;;23.05;50.84
48156;BME280;35568;48.104;11.782;2023-08-24T02:48:27;95619.79;;;23.03;49.83
48156;BME280;35568;48.104;11.782;2023-08-24T02:50:54;95617.22;;;22.98;50.44
48156;BME280;35568;48.104;11.782;2023-08-24T02:53:21;95613.36;;;22.63;51.01
48156;BME280;35568;48.104;11.782;2023-08-24T02:55:48;95614.18;;;22.30;52.20
48156;BME280;35568;48.104;11.782;2023-08-24T02:58:15;95615.86;;;22.22;52.57
48156;BME280;35568;48.104;11.782;2023-08-24T03:03:01;95611.51;;;22.42;51.85
48156;BME280;35568;48.104;11.782;2023-08-24T03:05:28;95608.72;;;22.42;51.55
48156;BME280;35568;48.104;11.782;2023-08-24T03:07:55;95607.86;;;22.30;51.34
48156;BME280;35568;48.104;11.782;2023-08-24T03:10:22;95607.88;;;22.41;51.56
48156;BME280;35568;48.104;11.782;2023-08-24T03:12:49;95605.61;;;22.30;51.16
48156;BME280;35568;48.104;11.782;2023-08-24T03:15:16;95603.40;;;22.58;50.65
48156;BME280;35568;48.104;11.782;2023-08-24T03:17:43;95602.97;;;22.88;50.67
48156;BME280;35568;48.104;11.782;2023-08-24T03:20:11;95600.37;;;22.63;50.64
48156;BME280;35568;48.104;11.782;2023-08-24T03:22:38;95599.63;;;22.77;50.26
48156;BME280;35568;48.104;11.782;2023-08-24T03:25:05;95595.97;;;22.24;50.89
48156;BME280;35568;48.104;11.782;2023-08-24T03:27:32;95599.10;;;22.06;52.03
48156;BME280;35568;48.104;11.782;2023-08-24T03:29:59;95595.01;;;22.05;51.62
48156;BME280;35568;48.104;11.782;2023-08-24T03:32:26;95594.49;;;22.44;49.95
48156;BME280;35568;48.104;11.782;2023-08-24T03:34:58;95590.09;;;22.57;49.65
48156;BME280;35568;48.104;11.782;2023-08-24T03:37:25;95589.83;;;22.72;49.43
48156;BME280;35568;48.104;11.782;2023-08-24T03:39:52;95587.94;;;22.70;49.57
48156;BME280;35568;48.104;11.782;2023-08-24T03:42:19;95587.23;;;22.35;50.74
48156;BME280;35568;48.104;11.782;2023-08-24T03:44:46;95584.29;;;22.40;50.52
48156;BME280;35568;48.104;11.782;2023-08-24T03:47:13;95585.59;;;22.30;50.39
48156;BME280;35568;48.104;11.782;2023-08-24T03:49:42;95589.12;;;21.86;51.57
48156;BME280;35568;48.104;11.782;2023-08-24T03:52:09;95589.51;;;21.74;52.18
48156;BME280;35568;48.104;11.782;2023-08-24T03:54:36;95588.25;;;21.62;52.48
48156;BME280;35568;48.104;11.782;2023-08-24T03:57:03;95585.23;;;21.77;52.66
48156;BME280;35568;48.104;11.782;2023-08-24T03:59:30;95584.43;;;21.47;52.68
48156;BME280;35568;48.104;11.782;2023-08-24T04:01:57;95586.75;;;21.64;52.06
48156;BME280;35568;48.104;11.782;2023-08-24T04:04:24;95586.83;;;21.73;52.13
48156;BME280;35568;48.104;11.782;2023-08-24T04:06:51;95585.79;;;21.41;52.46
48156;BME280;35568;48.104;11.782;2023-08-24T04:09:18;95587.89;;;21.99;52.64
48156;BME280;35568;48.104;11.782;2023-08-24T04:11:46;95587.09;;;21.83;52.99
48156;BME280;35568;48.104;11.782;2023-08-24T04:14:12;95591.78;;;21.58;52.76
48156;BME280;35568;48.104;11.782;2023-08-24T04:16:40;95593.17;;;21.85;52.82
48156;BME280;35568;48.104;11.782;2023-08-24T04:19:07;95596.45;;;21.58;52.35
48156;BME280;35568;48.104;11.782;2023-08-24T04:21:34;95598.28;;;21.77;52.16
48156;BME280;35568;48.104;11.782;2023-08-24T04:24:02;95603.62;;;21.94;51.65
48156;BME280;35568;48.104;11.782;2023-08-24T04:26:29;95605.90;;;21.90;51.59
48156;BME280;35568;48.104;11.782;2023-08-24T04:28:56;95606.04;;;21.32;52.57
48156;BME280;35568;48.104;11.782;2023-08-24T04:31:24;95604.42;;;21.75;52.80
48156;BME280;35568;48.104;11.782;2023-08-24T04:33:50;95600.52;;;21.93;52.02
48156;BME280;35568;48.104;11.782;2023-08-24T04:36:17;95604.53;;;21.64;51.61
48156;BME280;35568;48.104;11.782;2023-08-24T04:38:44;95607.22;;;21.75;51.36
48156;BME280;35568;48.104;11.782;2023-08-24T04:41:12;95606.68;;;22.39;50.34
48156;BME280;35568;48.104;11.782;2023-08-24T04:43:39;95610.46;;;22.22;50.79
48156;BME280;35568;48.104;11.782;2023-08-24T04:46:05;95611.96;;;22.09;50.82
48156;BME280;35568;48.104;11.782;2023-08-24T04:48:33;95612.43;;;21.75;51.30
48156;BME280;35568;48.104;11.782;2023-08-24T04:51:00;95606.73;;;21.99;52.06
48156;BME280;35568;48.104;11.782;2023-08-24T04:53:28;95612.97;;;21.42;52.58
48156;BME280;35568;48.104;11.782;2023-08-24T04:55:55;95614.07;;;21.49;52.34
48156;BME280;35568;48.104;11.782;2023-08-24T04:58:22;95613.71;;;22.17;51.93
48156;BME280;35568;48.104;11.782;2023-08-24T05:00:49;95615.08;;;21.71;51.57
48156;BME280;35568;48.104;11.782;2023-08-24T05:03:17;95617.41;;;21.95;51.18
48156;BME280;35568;48.104;11.782;2023-08-24T05:05:44;95612.68;;;21.82;50.67
48156;BME280;35568;48.104;11.782;2023-08-24T05:08:12;95614.33;;;22.66;50.32
48156;BME280;35568;48.104;11.782;2023-08-24T05:10:39;95610.62;;;22.55;50.04
48156;BME280;35568;48.104;11.782;2023-08-24T05:13:06;95608.71;;;22.52;50.21
48156;BME280;35568;48.104;11.782;2023-08-24T05:15:33;95605.92;;;22.68;49.75
48156;BME280;35568;48.104;11.782;2023-08-24T05:18:00;95605.88;;;22.80;49.36
48156;BME280;35568;48.104;11.782;2023-08-24T05:20:28;95607.53;;;22.64;49.68
48156;BME280;35568;48.104;11.782;2023-08-24T05:22:55;95610.52;;;22.75;49.77
48156;BME280;35568;48.104;11.782;2023-08-24T05:25:22;95608.87;;;22.94;49.91
48156;BME280;35568;48.104;11.782;2023-08-24T05:27:51;95607.77;;;23.01;49.95
48156;BME280;35568;48.104;11.782;2023-08-24T05:30:18;95611.45;;;23.15;49.69
48156;BME280;35568;48.104;11.782;2023-08-24T05:32:45;95614.24;;;23.32;49.56
48156;BME280;35568;48.104;11.782;2023-08-24T05:35:12;95608.72;;;23.34;49.22
48156;BME280;35568;48.104;11.782;2023-08-24T05:37:39;95609.55;;;23.79;48.96
48156;BME280;35568;48.104;11.782;2023-08-24T05:40:07;95607.21;;;23.76;48.51
48156;BME280;35568;48.104;11.782;2023-08-24T05:42:35;95603.61;;;23.96;48.50
48156;BME280;35568;48.104;11.782;2023-08-24T05:45:02;95606.61;;;23.69;49.31
48156;BME280;35568;48.104;11.782;2023-08-24T05:47:29;95611.67;;;23.88;49.22
48156;BME280;35568;48.104;11.782;2023-08-24T05:49:56;95610.80;;;24.22;48.68
48156;BME280;35568;48.104;11.782;2023-08-24T05:52:23;95608.18;;;24.01;48.95
48156;BME280;35568;48.104;11.782;2023-08-24T05:54:51;95604.24;;;24.08;49.38
48156;BME280;35568;48.104;11.782;2023-08-24T05:57:18;95600.13;;;24.11;49.38
48156;BME280;35568;48.104;11.782;2023-08-24T05:59:44;95598.42;;;23.84;49.24
48156;BME280;35568;48.104;11.782;2023-08-24T06:02:12;95595.89;;;24.43;48.73
48156;BME280;35568;48.104;11.782;2023-08-24T06:04:39;95602.10;;;24.30;48.31
48156;BME280;35568;48.104;11.782;2023-08-24T06:07:05;95600.87;;;24.49;48.38
48156;BME280;35568;48.104;11.782;2023-08-24T06:09:33;95598.14;;;24.88;47.56
48156;BME280;35568;48.104;11.782;2023-08-24T06:12:00;95598.18;;;24.97;47.44
48156;BME280;35568;48.104;11.782;2023-08-24T06:14:27;95598.45;;;25.14;47.52
48156;BME280;35568;48.104;11.782;2023-08-24T06:16:54;95595.50;;;25.46;47.04
48156;BME280;35568;48.104;11.782;2023-08-24T06:19:20;95593.38;;;25.38;46.92
48156;BME280;35568;48.104;11.782;2023-08-24T06:21:47;95590.32;;;25.69;46.80
48156;BME280;35568;48.104;11.782;2023-08-24T06:24:14;95585.61;;;25.47;46.60
48156;BME280;35568;48.104;11.782;2023-08-24T06:26:41;95586.91;;;26.04;46.28
48156;BME280;35568;48.104;11.782;2023-08-24T06:29:08;95587.64;;;25.91;45.99
48156;BME280;35568;48.104;11.782;2023-08-24T06:31:35;95587.98;;;25.85;46.10
48156;BME280;35568;48.104;11.782;2023-08-24T06:34:02;95587.15;;;25.74;45.59
48156;BME280;35568;48.104;11.782;2023-08-24T06:36:29;95586.39;;;25.60;45.20
48156;BME280;35568;48.104;11.782;2023-08-24T06:38:56;95585.37;;;26.28;44.18
48156;BME280;35568;48.104;11.782;2023-08-24T06:41:23;95583.98;;;26.39;43.70
48156;BME280;35568;48.104;11.782;2023-08-24T06:43:49;95580.66;;;26.54;42.90
48156;BME280;35568;48.104;11.782;2023-08-24T06:46:16;95586.79;;;27.00;42.21
48156;BME280;35568;48.104;11.782;2023-08-24T06:48:43;95583.96;;;26.85;41.40
48156;BME280;35568;48.104;11.782;2023-08-24T06:51:10;95586.92;;;27.01;41.18
48156;BME280;35568;48.104;11.782;2023-08-24T06:53:37;95586.05;;;26.94;41.08
48156;BME280;35568;48.104;11.782;2023-08-24T06:56:04;95584.42;;;27.03;41.29
48156;BME280;35568;48.104;11.782;2023-08-24T06:58:31;95584.48;;;27.19;41.26
48156;BME280;35568;48.104;11.782;2023-08-24T07:00:58;95583.29;;;27.33;40.86
48156;BME280;35568;48.104;11.782;2023-08-24T07:03:25;95583.49;;;27.37;40.47
48156;BME280;35568;48.104;11.782;2023-08-24T07:05:52;95577.61;;;27.91;40.38
48156;BME280;35568;48.104;11.782;2023-08-24T07:08:19;95574.66;;;28.15;39.75
48156;BME280;35568;48.104;11.782;2023-08-24T07:10:46;95569.38;;;27.80;40.59
48156;BME280;35568;48.104;11.782;2023-08-24T07:13:13;95568.87;;;28.41;39.66
48156;BME280;35568;48.104;11.782;2023-08-24T07:15:40;95566.25;;;28.58;39.01
48156;BME280;35568;48.104;11.782;2023-08-24T07:18:07;95563.99;;;28.86;38.76
48156;BME280;35568;48.104;11.782;2023-08-24T07:20:36;95559.81;;;28.80;38.76
48156;BME280;35568;48.104;11.782;2023-08-24T07:23:03;95559.74;;;28.69;38.62
48156;BME280;35568;48.104;11.782;2023-08-24T07:25:30;95556.33;;;28.69;38.82
48156;BME280;35568;48.104;11.782;2023-08-24T07:27:57;95554.23;;;28.70;38.84
48156;BME280;35568;48.104;11.782;2023-08-24T07:30:24;95553.11;;;29.33;38.59
48156;BME280;35568;48.104;11.782;2023-08-24T07:32:51;95551.99;;;28.67;39.16
48156;BME280;35568;48.104;11.782;2023-08-24T07:35:19;95550.04;;;29.20;38.86
48156;BME280;35568;48.104;11.782;2023-08-24T07:37:46;95543.36;;;29.47;38.48
48156;BME280;35568;48.104;11.782;2023-08-24T07:40:14;95545.34;;;29.88;37.73
48156;BME280;35568;48.104;11.782;2023-08-24T07:42:45;95542.22;;;29.82;37.86
48156;BME280;35568;48.104;11.782;2023-08-24T07:45:13;95544.67;;;29.69;38.07
48156;BME280;35568;48.104;11.782;2023-08-24T07:47:41;95544.31;;;29.51;37.94
48156;BME280;35568;48.104;11.782;2023-08-24T07:50:09;95544.18;;;30.16;37.45
48156;BME280;35568;48.104;11.782;2023-08-24T07:52:38;95540.44;;;30.22;36.75
48156;BME280;35568;48.104;11.782;2023-08-24T07:55:06;95539.57;;;30.45;36.47
48156;BME280;35568;48.104;11.782;2023-08-24T07:57:33;95538.36;;;30.36;36.68
48156;BME280;35568;48.104;11.782;2023-08-24T08:00:00;95539.23;;;30.14;37.18
48156;BME280;35568;48.104;11.782;2023-08-24T08:02:27;95534.86;;;30.64;37.08
48156;BME280;35568;48.104;11.782;2023-08-24T08:04:56;95532.34;;;30.81;36.05
48156;BME280;35568;48.104;11.782;2023-08-24T08:07:23;95541.24;;;31.03;35.86
48156;BME280;35568;48.104;11.782;2023-08-24T08:09:50;95541.70;;;31.29;35.80
48156;BME280;35568;48.104;11.782;2023-08-24T08:12:17;95543.64;;;31.94;34.83
48156;BME280;35568;48.104;11.782;2023-08-24T08:14:43;95541.48;;;32.49;34.23
48156;BME280;35568;48.104;11.782;2023-08-24T08:17:11;95537.55;;;32.85;33.95
48156;BME280;35568;48.104;11.782;2023-08-24T08:19:38;95533.05;;;33.37;33.48
48156;BME280;35568;48.104;11.782;2023-08-24T08:22:05;95528.57;;;33.35;33.24
48156;BME280;35568;48.104;11.782;2023-08-24T08:24:33;95524.30;;;33.63;32.98
48156;BME280;35568;48.104;11.782;2023-08-24T08:27:00;95528.96;;;33.02;33.35
48156;BME280;35568;48.104;11.782;2023-08-24T08:29:27;95533.22;;;33.11;33.73
48156;BME280;35568;48.104;11.782;2023-08-24T08:31:54;95525.34;;;33.43;33.41
48156;BME280;35568;48.104;11.782;2023-08-24T08:34:21;95527.21;;;33.01;33.62
48156;BME280;35568;48.104;11.782;2023-08-24T08:36:48;95526.32;;;33.01;33.40
48156;BME280;35568;48.104;11.782;2023-08-24T08:39:15;95522.06;;;32.90;33.38
48156;BME280;35568;48.104;11.782;2023-08-24T08:41:43;95524.32;;;32.37;34.10
48156;BME280;35568;48.104;11.782;2023-08-24T08:44:13;95520.74;;;33.49;33.26
48156;BME280;35568;48.104;11.782;2023-08-24T08:46:42;95524.24;;;33.36;33.06
48156;BME280;35568;48.104;11.782;2023-08-24T08:49:09;95521.43;;;33.32;32.56
48156;BME280;35568;48.104;11.782;2023-08-24T08:51:36;95523.68;;;34.21;31.65
48156;BME280;35568;48.104;11.782;2023-08-24T08:54:04;95524.82;;;34.01;31.50
48156;BME280;35568;48.104;11.782;2023-08-24T08:56:32;95523.95;;;34.05;31.52
48156;BME280;35568;48.104;11.782;2023-08-24T08:59:00;95519.74;;;34.90;30.57
48156;BME280;35568;48.104;11.782;2023-08-24T09:01:28;95518.30;;;35.32;30.00
48156;BME280;35568;48.104;11.782;2023-08-24T09:03:57;95520.75;;;35.57;29.16
48156;BME280;35568;48.104;11.782;2023-08-24T09:06:24;95524.58;;;34.96;29.62
48156;BME280;35568;48.104;11.782;2023-08-24T09:08:52;95525.78;;;35.70;28.96
48156;BME280;35568;48.104;11.782;2023-08-24T09:11:20;95525.42;;;35.67;29.09
48156;BME280;35568;48.104;11.782;2023-08-24T09:13:47;95519.32;;;35.89;28.78
48156;BME280;35568;48.104;11.782;2023-08-24T09:16:14;95514.86;;;36.53;28.22
48156;BME280;35568;48.104;11.782;2023-08-24T09:18:42;95514.57;;;36.88;27.75
48156;BME280;35568;48.104;11.782;2023-08-24T09:21:11;95515.00;;;36.38;27.67
48156;BME280;35568;48.104;11.782;2023-08-24T09:23:38;95515.95;;;36.72;27.59
48156;BME280;35568;48.104;11.782;2023-08-24T09:26:09;95512.16;;;36.63;27.33
48156;BME280;35568;48.104;11.782;2023-08-24T09:28:36;95507.82;;;37.31;26.71
48156;BME280;35568;48.104;11.782;2023-08-24T09:31:02;95503.48;;;37.26;26.65
48156;BME280;35568;48.104;11.782;2023-08-24T09:33:30;95500.70;;;37.55;26.49
48156;BME280;35568;48.104;11.782;2023-08-24T09:35:57;95495.11;;;37.62;26.60
48156;BME280;35568;48.104;11.782;2023-08-24T09:38:24;95488.53;;;38.19;26.59
48156;BME280;35568;48.104;11.782;2023-08-24T09:40:51;95474.78;;;37.71;26.22
48156;BME280;35568;48.104;11.782;2023-08-24T09:43:19;95465.01;;;37.53;25.99
48156;BME280;35568;48.104;11.782;2023-08-24T09:45:50;95457.82;;;36.43;27.52
48156;BME280;35568;48.104;11.782;2023-08-24T09:48:17;95447.37;;;35.60;28.27
48156;BME280;35568;48.104;11.782;2023-08-24T09:50:45;95437.68;;;36.73;27.51
48156;BME280;35568;48.104;11.782;2023-08-24T09:53:16;95432.56;;;37.41;27.43
48156;BME280;35568;48.104;11.782;2023-08-24T09:55:51;95432.48;;;37.60;26.94
48156;BME280;35568;48.104;11.782;2023-08-24T09:58:20;95437.78;;;37.66;26.81
48156;BME280;35568;48.104;11.782;2023-08-24T10:00:49;95438.60;;;37.60;27.20
48156;BME280;35568;48.104;11.782;2023-08-24T10:03:18;95441.79;;;36.97;27.41
48156;BME280;35568;48.104;11.782;2023-08-24T10:05:48;95443.40;;;37.07;27.41
48156;BME280;35568;48.104;11.782;2023-08-24T10:08:20;95440.37;;;37.87;27.10
48156;BME280;35568;48.104;11.782;2023-08-24T10:10:50;95439.99;;;37.33;27.11
48156;BME280;35568;48.104;11.782;2023-08-24T10:13:26;95436.42;;;37.39;26.85
48156;BME280;35568;48.104;11.782;2023-08-24T10:15:56;95432.49;;;37.91;26.40
48156;BME280;35568;48.104;11.782;2023-08-24T10:18:25;95425.80;;;38.66;25.59
48156;BME280;35568;48.104;11.782;2023-08-24T10:20:56;95422.71;;;38.19;25.71
48156;BME280;35568;48.104;11.782;2023-08-24T10:23:25;95418.11;;;38.97;25.39
48156;BME280;35568;48.104;11.782;2023-08-24T10:25:55;95416.99;;;39.30;24.88
48156;BME280;35568;48.104;11.782;2023-08-24T10:28:24;95413.39;;;39.25;24.93
48156;BME280;35568;48.104;11.782;2023-08-24T10:30:51;95413.28;;;39.21;24.39
48156;BME280;35568;48.104;11.782;2023-08-24T10:33:20;95410.61;;;39.09;24.11
48156;BME280;35568;48.104;11.782;2023-08-24T10:35:48;95400.34;;;38.82;24.48
48156;BME280;35568;48.104;11.782;2023-08-24T10:38:24;95394.61;;;38.77;24.59
48156;BME280;35568;48.104;11.782;2023-08-24T10:40:52;95388.05;;;39.03;24.62
48156;BME280;35568;48.104;11.782;2023-08-24T10:43:19;95386.13;;;37.83;25.58
48156;BME280;35568;48.104;11.782;2023-08-24T10:46:03;95385.61;;;38.79;24.99
48156;BME280;35568;48.104;11.782;2023-08-24T10:48:30;95381.83;;;39.02;24.81
48156;BME280;35568;48.104;11.782;2023-08-24T10:51:30;95385.05;;;38.57;24.45
48156;BME280;35568;48.104;11.782;2023-08-24T10:53:59;95379.90;;;38.57;24.86
48156;BME280;35568;48.104;11.782;2023-08-24T10:56:35;95373.86;;;39.01;24.50
48156;BME280;35568;48.104;11.782;2023-08-24T10:59:13;95370.89;;;38.02;25.25
48156;BME280;35568;48.104;11.782;2023-08-24T11:01:41;95359.55;;;39.37;24.34
48156;BME280;35568;48.104;11.782;2023-08-24T11:04:10;95353.24;;;38.90;24.34
48156;BME280;35568;48.104;11.782;2023-08-24T11:06:52;95343.61;;;40.00;23.54
48156;BME280;35568;48.104;11.782;2023-08-24T11:09:19;95342.22;;;39.00;24.09
48156;BME280;35568;48.104;11.782;2023-08-24T11:12:02;95342.32;;;39.31;23.99
48156;BME280;35568;48.104;11.782;2023-08-24T11:14:30;95338.70;;;39.95;23.66
48156;BME280;35568;48.104;11.782;2023-08-24T11:16:58;95338.44;;;40.63;23.29
48156;BME280;35568;48.104;11.782;2023-08-24T11:19:25;95340.75;;;40.31;23.20
48156;BME280;35568;48.104;11.782;2023-08-24T11:21:52;95336.48;;;40.78;22.72
48156;BME280;35568;48.104;11.782;2023-08-24T11:24:19;95326.47;;;40.53;22.46
48156;BME280;35568;48.104;11.782;2023-08-24T11:26:48;95330.05;;;40.49;22.27
48156;BME280;35568;48.104;11.782;2023-08-24T11:29:15;95325.58;;;39.89;22.87
48156;BME280;35568;48.104;11.782;2023-08-24T11:31:42;95319.28;;;39.12;23.15
48156;BME280;35568;48.104;11.782;2023-08-24T11:34:10;95314.87;;;39.78;23.02
48156;BME280;35568;48.104;11.782;2023-08-24T11:36:42;95312.77;;;40.49;22.62
48156;BME280;35568;48.104;11.782;2023-08-24T11:39:15;95310.91;;;40.85;22.44
48156;BME280;35568;48.104;11.782;2023-08-24T11:41:42;95303.22;;;40.35;22.76
48156;BME280;35568;48.104;11.782;2023-08-24T11:44:09;95300.53;;;40.78;22.39
48156;BME280;35568;48.104;11.782;2023-08-24T11:46:37;95303.65;;;40.49;21.36
48156;BME280;35568;48.104;11.782;2023-08-24T11:49:05;95294.02;;;40.26;21.89
48156;BME280;35568;48.104;11.782;2023-08-24T11:51:32;95293.34;;;41.02;22.09
48156;BME280;35568;48.104;11.782;2023-08-24T11:53:59;95288.36;;;40.35;22.29
48156;BME280;35568;48.104;11.782;2023-08-24T11:56:26;95288.48;;;40.11;22.35
48156;BME280;35568;48.104;11.782;2023-08-24T11:58:53;95286.93;;;40.85;21.89
48156;BME280;35568;48.104;11.782;2023-08-24T12:01:20;95284.45;;;40.87;22.20
48156;BME280;35568;48.104;11.782;2023-08-24T12:03:47;95281.63;;;41.23;21.96
48156;BME280;35568;48.104;11.782;2023-08-24T12:06:15;95275.30;;;41.64;21.33
48156;BME280;35568;48.104;11.782;2023-08-24T12:08:49;95277.50;;;41.76;20.82
48156;BME280;35568;48.104;11.782;2023-08-24T12:11:18;95278.22;;;41.53;20.75
48156;BME280;35568;48.104;11.782;2023-08-24T12:13:49;95275.28;;;41.43;21.19
48156;BME280;35568;48.104;11.782;2023-08-24T12:16:17;95271.03;;;41.52;21.33
48156;BME280;35568;48.104;11.782;2023-08-24T12:18:51;95264.21;;;42.15;20.91
48156;BME280;35568;48.104;11.782;2023-08-24T12:21:18;95268.44;;;40.97;21.60
48156;BME280;35568;48.104;11.782;2023-08-24T12:23:54;95267.06;;;41.09;21.79
48156;BME280;35568;48.104;11.782;2023-08-24T12:26:21;95261.00;;;41.31;21.22
48156;BME280;35568;48.104;11.782;2023-08-24T12:28:50;95261.11;;;40.75;21.26
48156;BME280;35568;48.104;11.782;2023-08-24T12:31:17;95250.94;;;41.16;21.26
48156;BME280;35568;48.104;11.782;2023-08-24T12:33:45;95247.35;;;41.20;21.63
48156;BME280;35568;48.104;11.782;2023-08-24T12:36:12;95239.48;;;41.42;21.38
48156;BME280;35568;48.104;11.782;2023-08-24T12:38:39;95237.65;;;41.78;20.83
48156;BME280;35568;48.104;11.782;2023-08-24T12:41:06;95238.11;;;41.43;20.92
48156;BME280;35568;48.104;11.782;2023-08-24T12:43:33;95229.79;;;41.52;20.82
48156;BME280;35568;48.104;11.782;2023-08-24T12:45:59;95232.15;;;42.14;20.33
48156;BME280;35568;48.104;11.782;2023-08-24T12:48:26;95230.29;;;41.57;19.90
48156;BME280;35568;48.104;11.782;2023-08-24T12:50:54;95225.89;;;41.81;20.04
48156;BME280;35568;48.104;11.782;2023-08-24T12:53:21;95221.50;;;42.37;19.94
48156;BME280;35568;48.104;11.782;2023-08-24T12:55:47;95219.39;;;42.82;19.43